Terminal Aerodrome Forecast
Issued by NWS Riverton, WY

Home | Current Version | Previous Version | Text Only | Print | Product List | Glossary On
Versions: 1 2 3 4 5 6 7 8 9 10 11 12 13 14 15 16 17 18
000
FTUS45 KRIW 052300
TAFRIW
TAF
KRIW 052338Z 0600/0624 17006KT P6SM SCT070 BKN140
     FM060300 VRB06KT P6SM VCSH BKN070
     FM061000 36009KT P6SM VCSH BKN030
     FM061300 36011KT P6SM -RA BKN018=

USA.gov is the U.S. government's official web portal to all federal, state and local government web resources and services.